createdAt,value
2023-01-31T00:00:25.746Z,44.77
2023-01-31T00:01:25.738Z,42.21
2023-01-31T00:02:25.784Z,42.68
2023-01-31T00:03:25.751Z,49.05
2023-01-31T00:04:25.712Z,45.73
2023-01-31T00:05:25.706Z,55.03
2023-01-31T00:06:25.700Z,51.87
2023-01-31T00:07:25.723Z,51.50
2023-01-31T00:08:25.681Z,43.76
2023-01-31T00:09:25.686Z,45.48
2023-01-31T00:10:25.671Z,42.46
2023-01-31T00:11:25.675Z,42.73
2023-01-31T00:12:25.678Z,44.74
2023-01-31T00:13:25.646Z,44.41
2023-01-31T00:14:25.639Z,49.24
2023-01-31T00:15:25.708Z,51.19
2023-01-31T00:16:25.620Z,51.07
2023-01-31T00:17:25.635Z,51.07
2023-01-31T00:18:25.615Z,46.84
2023-01-31T00:19:25.596Z,51.90
2023-01-31T00:20:25.590Z,45.95
2023-01-31T00:21:25.590Z,53.11
2023-01-31T00:22:25.598Z,50.61
2023-01-31T00:23:25.565Z,43.72
2023-01-31T00:24:25.562Z,45.86
2023-01-31T00:25:25.575Z,46.30
2023-01-31T00:26:25.620Z,52.07
2023-01-31T00:27:25.574Z,43.22
2023-01-31T00:28:25.625Z,49.46
2023-01-31T00:29:25.530Z,42.57
2023-01-31T00:30:25.519Z,46.67
2023-01-31T00:31:25.587Z,42.84
2023-01-31T00:32:25.583Z,48.25
2023-01-31T00:33:25.499Z,43.40
2023-01-31T00:34:25.491Z,46.71
2023-01-31T00:35:25.494Z,50.48
2023-01-31T00:36:25.479Z,53.26
2023-01-31T00:37:25.494Z,43.76
2023-01-31T00:38:25.455Z,43.82
2023-01-31T00:39:25.452Z,52.90
2023-01-31T00:40:25.445Z,46.90
2023-01-31T00:41:25.437Z,47.05
2023-01-31T00:42:25.426Z,42.60
2023-01-31T00:43:25.442Z,47.37
2023-01-31T00:44:25.411Z,48.11
2023-01-31T00:45:25.403Z,50.64
2023-01-31T00:46:25.522Z,43.50
2023-01-31T00:47:25.391Z,46.33
2023-01-31T00:48:25.415Z,48.27
2023-01-31T00:49:25.377Z,42.79
2023-01-31T00:50:25.372Z,44.52
2023-01-31T00:51:26.628Z,51.77
2023-01-31T00:52:26.417Z,48.65
2023-01-31T00:53:25.374Z,50.95
2023-01-31T00:54:25.340Z,50.55
2023-01-31T00:55:25.338Z,45.60
2023-01-31T00:56:25.319Z,46.67
2023-01-31T00:57:25.319Z,48.14
2023-01-31T00:58:25.329Z,44.78
2023-01-31T00:59:25.301Z,52.86
2023-01-31T01:00:25.324Z,52.85
2023-01-31T01:01:25.284Z,46.89
2023-01-31T01:02:25.276Z,47.89
2023-01-31T01:03:25.291Z,52.79
2023-01-31T01:04:25.260Z,49.30
2023-01-31T01:05:25.249Z,44.15
2023-01-31T01:06:25.256Z,44.97
2023-01-31T01:07:25.234Z,42.20
2023-01-31T01:08:25.260Z,43.35
2023-01-31T01:09:25.219Z,50.94
2023-01-31T01:10:25.210Z,50.78
2023-01-31T01:11:25.202Z,57.99
2023-01-31T01:12:25.208Z,46.87
2023-01-31T01:13:25.218Z,45.79
2023-01-31T01:14:25.186Z,52.64
2023-01-31T01:15:25.170Z,47.44
2023-01-31T01:16:25.246Z,42.57
2023-01-31T01:17:25.160Z,44.82
2023-01-31T01:18:25.260Z,44.38
2023-01-31T01:19:25.148Z,42.47
2023-01-31T01:20:25.124Z,48.06
2023-01-31T01:21:26.132Z,43.35
2023-01-31T01:22:25.117Z,50.95
2023-01-31T01:23:25.135Z,43.36
2023-01-31T01:24:25.103Z,54.76
2023-01-31T01:25:25.103Z,42.06
2023-01-31T01:26:25.150Z,49.46
2023-01-31T01:27:25.078Z,47.85
2023-01-31T01:28:25.735Z,43.93
2023-01-31T01:29:25.064Z,43.23
2023-01-31T01:30:25.056Z,41.49
2023-01-31T01:31:25.178Z,45.30
2023-01-31T01:32:25.118Z,42.76
2023-01-31T01:33:25.031Z,50.11
2023-01-31T01:34:25.053Z,50.35
2023-01-31T01:35:25.027Z,47.53
2023-01-31T01:36:25.007Z,46.16
2023-01-31T01:37:24.998Z,46.34
2023-01-31T01:38:24.994Z,44.06
2023-01-31T01:39:25.006Z,49.18
2023-01-31T01:40:24.978Z,53.03
2023-01-31T01:41:24.976Z,50.26
2023-01-31T01:42:24.965Z,41.47
2023-01-31T01:43:24.955Z,41.68
2023-01-31T01:44:24.978Z,47.37
2023-01-31T01:45:26.219Z,47.07
2023-01-31T01:46:24.926Z,41.55
2023-01-31T01:47:24.923Z,47.64
2023-01-31T01:48:24.913Z,41.69
2023-01-31T01:49:24.934Z,44.76
2023-01-31T01:50:24.910Z,47.70
2023-01-31T01:51:24.891Z,42.10
2023-01-31T01:52:24.885Z,41.97
2023-01-31T01:53:24.877Z,45.85
2023-01-31T01:54:24.893Z,45.86
2023-01-31T01:55:24.866Z,46.74
2023-01-31T01:56:24.853Z,57.21
2023-01-31T01:57:24.849Z,51.72
2023-01-31T01:58:24.839Z,48.51
2023-01-31T01:59:24.861Z,47.46
2023-01-31T02:00:24.825Z,43.65
2023-01-31T02:01:24.867Z,49.27
2023-01-31T02:02:24.866Z,41.79
2023-01-31T02:03:24.812Z,45.10
2023-01-31T02:04:24.814Z,54.93
2023-01-31T02:05:24.784Z,43.85
2023-01-31T02:06:24.775Z,41.33
2023-01-31T02:07:24.770Z,45.82
2023-01-31T02:08:25.035Z,41.96
2023-01-31T02:09:25.284Z,44.52
2023-01-31T02:10:25.276Z,57.26
2023-01-31T02:11:25.071Z,48.84
2023-01-31T02:12:25.115Z,52.57
2023-01-31T02:13:24.869Z,50.07
2023-01-31T02:14:24.802Z,50.05
2023-01-31T02:15:24.774Z,51.90
2023-01-31T02:16:24.783Z,51.09
2023-01-31T02:17:24.693Z,42.22
2023-01-31T02:18:24.741Z,47.49
2023-01-31T02:19:25.242Z,46.23
2023-01-31T02:20:25.189Z,45.41
2023-01-31T02:21:25.036Z,53.49
2023-01-31T02:22:25.008Z,50.00
2023-01-31T02:23:24.898Z,46.45
2023-01-31T02:24:24.922Z,48.85
2023-01-31T02:25:24.628Z,51.20
2023-01-31T02:26:24.653Z,43.66
2023-01-31T02:27:24.625Z,54.73
2023-01-31T02:28:24.650Z,48.34
2023-01-31T02:29:24.600Z,44.97
2023-01-31T02:30:25.123Z,48.61
2023-01-31T02:31:25.239Z,52.57
2023-01-31T02:32:24.987Z,47.26
2023-01-31T02:33:24.900Z,49.15
2023-01-31T02:34:24.942Z,57.28
2023-01-31T02:35:24.809Z,53.56
2023-01-31T02:36:24.592Z,53.52
2023-01-31T02:37:24.545Z,51.68
2023-01-31T02:38:24.539Z,41.83
2023-01-31T02:39:24.525Z,48.75
2023-01-31T02:40:24.542Z,43.29
2023-01-31T02:41:25.003Z,43.09
2023-01-31T02:42:25.027Z,48.67
2023-01-31T02:43:24.767Z,49.27
2023-01-31T02:44:24.826Z,52.94
2023-01-31T02:45:24.497Z,43.05
2023-01-31T02:46:24.658Z,42.26
2023-01-31T02:47:24.609Z,56.01
2023-01-31T02:48:24.456Z,47.30
2023-01-31T02:49:24.445Z,56.47
2023-01-31T02:50:24.463Z,52.67
2023-01-31T02:51:24.441Z,44.65
2023-01-31T02:52:24.425Z,56.30
2023-01-31T02:53:24.426Z,48.30
2023-01-31T02:54:24.410Z,55.88
2023-01-31T02:55:24.428Z,50.43
2023-01-31T02:56:24.394Z,49.74
2023-01-31T02:57:24.387Z,46.81
2023-01-31T02:58:24.380Z,48.71
2023-01-31T02:59:24.377Z,41.74
2023-01-31T03:00:24.394Z,41.29
2023-01-31T03:01:24.476Z,43.35
2023-01-31T03:02:24.390Z,42.22
2023-01-31T03:03:24.346Z,50.61
2023-01-31T03:04:24.338Z,54.14
2023-01-31T03:05:24.815Z,49.85
2023-01-31T03:06:24.319Z,52.95
2023-01-31T03:07:24.312Z,48.92
2023-01-31T03:08:24.307Z,52.91
2023-01-31T03:09:24.293Z,58.79
2023-01-31T03:10:24.323Z,43.73
2023-01-31T03:11:24.281Z,46.87
2023-01-31T03:12:24.271Z,49.07
2023-01-31T03:13:24.279Z,52.60
2023-01-31T03:14:24.261Z,54.16
2023-01-31T03:15:24.773Z,53.75
2023-01-31T03:16:24.259Z,44.72
2023-01-31T03:17:24.232Z,46.26
2023-01-31T03:18:24.239Z,41.97
2023-01-31T03:19:24.216Z,49.40
2023-01-31T03:20:24.208Z,43.71
2023-01-31T03:21:24.220Z,41.48
2023-01-31T03:22:24.185Z,47.18
2023-01-31T03:23:24.185Z,53.94
2023-01-31T03:24:24.172Z,50.62
2023-01-31T03:25:24.629Z,44.05
2023-01-31T03:26:24.201Z,53.27
2023-01-31T03:27:24.151Z,54.26
2023-01-31T03:28:24.144Z,56.89
2023-01-31T03:29:24.147Z,48.12
2023-01-31T03:30:24.127Z,59.82
2023-01-31T03:31:24.243Z,52.78
2023-01-31T03:32:24.117Z,50.93
2023-01-31T03:33:24.107Z,54.16
2023-01-31T03:34:24.102Z,51.04
2023-01-31T03:35:24.091Z,52.00
2023-01-31T03:36:24.116Z,54.43
2023-01-31T03:37:24.083Z,49.60
2023-01-31T03:38:24.068Z,47.78
2023-01-31T03:39:24.059Z,45.33
2023-01-31T03:40:24.064Z,44.31
2023-01-31T03:41:24.086Z,45.55
2023-01-31T03:42:24.042Z,55.27
2023-01-31T03:43:24.031Z,47.20
2023-01-31T03:44:24.019Z,51.81
2023-01-31T03:45:24.025Z,52.74
2023-01-31T03:46:24.005Z,52.59
2023-01-31T03:47:24.025Z,51.61
2023-01-31T03:48:23.991Z,52.45
2023-01-31T03:49:23.990Z,51.38
2023-01-31T03:50:23.976Z,49.36
2023-01-31T03:51:23.972Z,51.78
2023-01-31T03:52:23.995Z,50.68
2023-01-31T03:53:23.956Z,44.48
2023-01-31T03:54:23.946Z,52.05
2023-01-31T03:55:23.944Z,48.28
2023-01-31T03:56:23.934Z,48.91
2023-01-31T03:57:23.942Z,49.36
2023-01-31T03:58:23.915Z,50.15
2023-01-31T03:59:23.904Z,51.77
2023-01-31T04:00:23.895Z,53.36
2023-01-31T04:01:23.911Z,53.81
2023-01-31T04:02:23.930Z,46.16
2023-01-31T04:03:23.885Z,43.69
2023-01-31T04:04:23.870Z,58.64
2023-01-31T04:05:23.863Z,53.72
2023-01-31T04:06:23.859Z,56.34
2023-01-31T04:07:23.870Z,50.58
2023-01-31T04:08:23.835Z,51.37
2023-01-31T04:09:23.827Z,56.60
2023-01-31T04:10:23.819Z,49.95
2023-01-31T04:11:23.812Z,49.47
2023-01-31T04:12:23.831Z,58.81
2023-01-31T04:13:23.799Z,55.73
2023-01-31T04:14:23.790Z,58.06
2023-01-31T04:15:23.782Z,51.84
2023-01-31T04:16:23.841Z,57.65
2023-01-31T04:17:23.799Z,57.61
2023-01-31T04:18:23.760Z,54.06
2023-01-31T04:19:23.746Z,56.52
2023-01-31T04:20:23.740Z,55.48
2023-01-31T04:21:23.730Z,53.71
2023-01-31T04:22:23.756Z,58.48
2023-01-31T04:23:23.717Z,53.23
2023-01-31T04:24:23.709Z,57.14
2023-01-31T04:25:23.887Z,51.78
2023-01-31T04:26:23.726Z,51.89
2023-01-31T04:27:23.715Z,57.27
2023-01-31T04:28:23.679Z,55.81
2023-01-31T04:29:23.676Z,59.11
2023-01-31T04:30:23.668Z,59.15
2023-01-31T04:31:23.777Z,54.20
2023-01-31T04:32:23.674Z,58.34
2023-01-31T04:33:23.649Z,55.87
2023-01-31T04:34:23.649Z,56.43
2023-01-31T04:35:23.639Z,56.94
2023-01-31T04:36:23.620Z,59.44
2023-01-31T04:37:23.637Z,58.66
2023-01-31T04:38:23.601Z,55.59
2023-01-31T04:39:23.601Z,58.45
2023-01-31T04:40:23.589Z,56.76
2023-01-31T04:41:23.577Z,55.43
2023-01-31T04:42:23.608Z,58.13
2023-01-31T04:43:23.568Z,59.61
2023-01-31T04:44:23.563Z,63.45
2023-01-31T04:45:23.551Z,55.67
2023-01-31T04:46:23.599Z,58.69
2023-01-31T04:47:23.559Z,55.32
2023-01-31T04:48:23.535Z,51.74
2023-01-31T04:49:23.518Z,54.49
2023-01-31T04:50:23.515Z,56.54
2023-01-31T04:51:23.505Z,57.61
2023-01-31T04:52:23.494Z,58.23
2023-01-31T04:53:23.522Z,56.74
2023-01-31T04:54:23.477Z,53.23
2023-01-31T04:55:24.474Z,58.10
2023-01-31T04:56:23.471Z,63.90
2023-01-31T04:57:23.501Z,57.30
2023-01-31T04:58:23.448Z,58.18
2023-01-31T04:59:23.446Z,60.28
2023-01-31T05:00:23.434Z,54.66
2023-01-31T05:01:23.427Z,56.79
2023-01-31T05:02:23.497Z,56.21
2023-01-31T05:03:23.433Z,58.15
2023-01-31T05:04:23.407Z,59.49
2023-01-31T05:05:23.394Z,59.80
2023-01-31T05:06:23.386Z,56.30
2023-01-31T05:07:23.388Z,59.26
2023-01-31T05:08:23.394Z,56.17
2023-01-31T05:09:23.366Z,58.77
2023-01-31T05:10:23.357Z,59.34
2023-01-31T05:11:23.349Z,65.42
2023-01-31T05:12:23.340Z,60.99
2023-01-31T05:13:23.355Z,56.02
2023-01-31T05:14:23.328Z,60.07
2023-01-31T05:15:23.365Z,59.03
2023-01-31T05:16:23.322Z,59.68
2023-01-31T05:17:23.300Z,60.88
2023-01-31T05:18:23.316Z,57.42
2023-01-31T05:19:23.277Z,58.75
2023-01-31T05:20:23.280Z,61.03
2023-01-31T05:21:23.263Z,58.12
2023-01-31T05:22:23.259Z,57.64
2023-01-31T05:23:23.278Z,59.61
2023-01-31T05:24:23.246Z,57.24
2023-01-31T05:25:23.466Z,61.20
2023-01-31T05:26:23.265Z,60.53
2023-01-31T05:27:23.224Z,61.76
2023-01-31T05:28:23.231Z,58.87
2023-01-31T05:29:23.202Z,60.07
2023-01-31T05:30:23.187Z,60.23
2023-01-31T05:31:23.248Z,64.02
2023-01-31T05:32:23.175Z,61.05
2023-01-31T05:33:23.191Z,58.06
2023-01-31T05:34:23.156Z,60.36
2023-01-31T05:35:23.443Z,60.71
2023-01-31T05:36:23.143Z,57.96
2023-01-31T05:37:23.138Z,60.53
2023-01-31T05:38:23.157Z,59.07
2023-01-31T05:39:23.127Z,60.08
2023-01-31T05:40:23.142Z,61.59
2023-01-31T05:41:23.111Z,61.23
2023-01-31T05:42:23.094Z,61.80
2023-01-31T05:43:24.122Z,58.42
2023-01-31T05:44:23.081Z,60.93
2023-01-31T05:45:23.349Z,58.87
2023-01-31T05:46:23.068Z,57.10
2023-01-31T05:47:23.060Z,63.10
2023-01-31T05:48:23.080Z,61.90
2023-01-31T05:49:23.042Z,59.14
2023-01-31T05:50:23.043Z,59.19
2023-01-31T05:51:23.032Z,61.85
2023-01-31T05:52:23.021Z,62.99
2023-01-31T05:53:23.038Z,58.34
2023-01-31T05:54:23.007Z,63.65
2023-01-31T05:55:23.085Z,60.06
2023-01-31T05:56:22.988Z,60.77
2023-01-31T05:57:22.979Z,60.92
2023-01-31T05:58:23.000Z,62.44
2023-01-31T05:59:22.964Z,61.25
2023-01-31T06:00:22.959Z,59.61
2023-01-31T06:01:23.080Z,59.03
2023-01-31T06:02:22.992Z,59.59
2023-01-31T06:03:22.989Z,59.98
2023-01-31T06:04:22.927Z,59.97
2023-01-31T06:05:22.979Z,59.97
2023-01-31T06:06:22.911Z,59.77
2023-01-31T06:07:22.910Z,61.16
2023-01-31T06:08:22.936Z,60.18
2023-01-31T06:09:22.889Z,61.50
2023-01-31T06:10:22.883Z,61.15
2023-01-31T06:11:22.875Z,61.35
2023-01-31T06:12:22.862Z,62.36
2023-01-31T06:13:22.854Z,60.96
2023-01-31T06:14:22.868Z,60.58
2023-01-31T06:15:23.188Z,61.05
2023-01-31T06:16:22.880Z,62.41
2023-01-31T06:17:22.824Z,61.38
2023-01-31T06:18:22.817Z,61.26
2023-01-31T06:19:22.835Z,61.57
2023-01-31T06:20:22.801Z,61.52
2023-01-31T06:21:22.804Z,61.07
2023-01-31T06:22:22.784Z,61.49
2023-01-31T06:23:22.779Z,62.13
2023-01-31T06:24:22.803Z,62.04
2023-01-31T06:25:23.069Z,61.12
2023-01-31T06:26:22.838Z,63.18
2023-01-31T06:27:22.748Z,61.30
2023-01-31T06:28:22.737Z,61.65
2023-01-31T06:29:22.752Z,60.45
2023-01-31T06:30:22.749Z,59.76
2023-01-31T06:31:22.880Z,61.48
2023-01-31T06:32:22.705Z,58.06
2023-01-31T06:33:26.399Z,61.17
2023-01-31T06:34:24.709Z,61.38
2023-01-31T06:35:22.917Z,63.14
2023-01-31T06:36:22.673Z,62.18
2023-01-31T06:37:22.701Z,60.33
2023-01-31T06:38:22.660Z,60.43
2023-01-31T06:39:22.684Z,62.54
2023-01-31T06:40:22.649Z,62.73
2023-01-31T06:41:22.641Z,60.35
2023-01-31T06:42:22.647Z,61.74
2023-01-31T06:43:22.622Z,62.55
2023-01-31T06:44:22.643Z,61.54
2023-01-31T06:45:23.034Z,61.12
2023-01-31T06:46:22.660Z,60.03
2023-01-31T06:47:22.593Z,65.61
2023-01-31T06:48:22.585Z,60.81
2023-01-31T06:49:22.600Z,60.69
2023-01-31T06:50:22.570Z,59.26
2023-01-31T06:51:22.553Z,62.00
2023-01-31T06:52:22.544Z,61.25
2023-01-31T06:53:22.542Z,59.73
2023-01-31T06:54:22.576Z,60.33
2023-01-31T06:55:22.739Z,61.83
2023-01-31T06:56:22.516Z,64.91
2023-01-31T06:57:22.506Z,59.33
2023-01-31T06:58:22.501Z,62.75
2023-01-31T06:59:22.519Z,61.15
2023-01-31T07:00:22.493Z,63.19
2023-01-31T07:01:22.585Z,59.18
2023-01-31T07:02:22.470Z,63.44
2023-01-31T07:03:22.460Z,58.73
2023-01-31T07:04:22.524Z,58.87
2023-01-31T07:05:22.781Z,59.74
2023-01-31T07:06:22.445Z,60.58
2023-01-31T07:07:22.430Z,59.94
2023-01-31T07:08:22.440Z,60.34
2023-01-31T07:09:22.437Z,60.63
2023-01-31T07:10:22.436Z,59.70
2023-01-31T07:11:22.407Z,59.13
2023-01-31T07:12:22.389Z,60.38
2023-01-31T07:13:22.384Z,58.36
2023-01-31T07:14:22.371Z,60.04
2023-01-31T07:15:22.653Z,59.14
2023-01-31T07:16:22.377Z,59.79
2023-01-31T07:17:22.343Z,58.97
2023-01-31T07:18:23.339Z,60.46
2023-01-31T07:19:22.338Z,54.51
2023-01-31T07:20:22.354Z,57.77
2023-01-31T07:21:22.322Z,59.97
2023-01-31T07:22:22.311Z,59.00
2023-01-31T07:23:22.306Z,56.80
2023-01-31T07:24:22.292Z,56.41
2023-01-31T07:25:22.578Z,61.85
2023-01-31T07:26:22.301Z,60.72
2023-01-31T07:27:22.270Z,56.27
2023-01-31T07:28:22.261Z,56.94
2023-01-31T07:29:22.264Z,60.62
2023-01-31T07:30:22.319Z,58.53
2023-01-31T07:31:22.300Z,57.47
2023-01-31T07:32:22.233Z,58.46
2023-01-31T07:33:22.220Z,60.78
2023-01-31T07:34:22.214Z,58.03
2023-01-31T07:35:22.530Z,60.17
2023-01-31T07:36:22.226Z,60.24
2023-01-31T07:37:22.191Z,59.77
2023-01-31T07:38:22.186Z,61.64
2023-01-31T07:39:23.179Z,59.41
2023-01-31T07:40:22.178Z,61.37
2023-01-31T07:41:22.193Z,59.11
2023-01-31T07:42:22.162Z,58.83
2023-01-31T07:43:22.166Z,60.73
2023-01-31T07:44:22.145Z,56.62
2023-01-31T07:45:23.787Z,62.22
2023-01-31T07:46:23.276Z,62.74
2023-01-31T07:47:22.109Z,56.69
2023-01-31T07:48:22.106Z,58.78
2023-01-31T07:49:22.097Z,61.86
2023-01-31T07:50:22.089Z,61.14
2023-01-31T07:51:22.102Z,56.60
2023-01-31T07:52:22.073Z,59.79
2023-01-31T07:53:22.062Z,60.60
2023-01-31T07:54:22.062Z,59.60
2023-01-31T07:55:22.486Z,55.52
2023-01-31T07:56:22.068Z,61.96
2023-01-31T07:57:22.029Z,59.85
2023-01-31T07:58:22.016Z,58.06
2023-01-31T07:59:22.011Z,59.34
2023-01-31T08:00:22.005Z,55.42
2023-01-31T08:01:22.051Z,59.69
2023-01-31T08:02:21.990Z,56.65
2023-01-31T08:03:21.984Z,58.02
2023-01-31T08:04:22.884Z,57.00
2023-01-31T08:05:23.448Z,57.20
2023-01-31T08:06:21.988Z,60.50
2023-01-31T08:07:21.952Z,58.31
2023-01-31T08:08:21.950Z,57.96
2023-01-31T08:09:21.941Z,60.34
2023-01-31T08:10:21.927Z,59.26
2023-01-31T08:11:21.947Z,59.95
2023-01-31T08:12:21.911Z,60.47
2023-01-31T08:13:21.917Z,58.65
2023-01-31T08:14:21.893Z,60.32
2023-01-31T08:15:22.333Z,59.45
2023-01-31T08:16:21.911Z,58.49
2023-01-31T08:17:21.904Z,61.34
2023-01-31T08:18:21.861Z,58.44
2023-01-31T08:19:21.858Z,59.74
2023-01-31T08:20:21.846Z,59.09
2023-01-31T08:21:21.876Z,60.51
2023-01-31T08:22:21.830Z,60.05
2023-01-31T08:23:21.820Z,58.53
2023-01-31T08:24:21.817Z,54.81
2023-01-31T08:25:22.326Z,58.15
2023-01-31T08:26:21.875Z,58.68
2023-01-31T08:27:21.827Z,60.49
2023-01-31T08:28:21.785Z,59.94
2023-01-31T08:29:21.777Z,63.71
2023-01-31T08:30:21.805Z,59.41
2023-01-31T08:31:21.898Z,56.22
2023-01-31T08:32:21.768Z,58.55
2023-01-31T08:33:21.747Z,55.41
2023-01-31T08:34:21.734Z,61.15
2023-01-31T08:35:21.962Z,59.73
2023-01-31T08:36:21.746Z,60.51
2023-01-31T08:37:21.724Z,58.43
2023-01-31T08:38:21.743Z,54.42
2023-01-31T08:39:21.699Z,61.95
2023-01-31T08:40:21.688Z,59.47
2023-01-31T08:41:21.712Z,60.62
2023-01-31T08:42:21.713Z,59.01
2023-01-31T08:43:21.661Z,59.21
2023-01-31T08:44:21.661Z,57.57
2023-01-31T08:45:22.151Z,53.38
2023-01-31T08:46:21.673Z,54.72
2023-01-31T08:47:21.630Z,57.96
2023-01-31T08:48:21.616Z,58.32
2023-01-31T08:49:21.632Z,60.47
2023-01-31T08:50:27.613Z,61.46
2023-01-31T08:51:23.646Z,59.18
2023-01-31T08:52:21.592Z,58.48
2023-01-31T08:53:21.592Z,56.60
2023-01-31T08:54:21.580Z,57.22
2023-01-31T08:55:21.882Z,57.50
2023-01-31T08:56:21.842Z,61.88
2023-01-31T08:57:21.557Z,60.63
2023-01-31T08:58:21.544Z,59.21
2023-01-31T08:59:21.534Z,59.13
2023-01-31T09:00:21.546Z,59.28
2023-01-31T09:01:21.591Z,59.38
2023-01-31T09:02:21.521Z,57.48
2023-01-31T09:03:21.506Z,57.59
2023-01-31T09:04:21.503Z,56.03
2023-01-31T09:05:21.908Z,58.58
2023-01-31T09:06:21.483Z,56.66
2023-01-31T09:07:21.508Z,58.16
2023-01-31T09:08:21.463Z,59.05
2023-01-31T09:09:21.456Z,52.76
2023-01-31T09:10:21.451Z,57.33
2023-01-31T09:11:21.435Z,59.01
2023-01-31T09:12:21.455Z,65.50
2023-01-31T09:13:21.420Z,60.59
2023-01-31T09:14:21.409Z,58.46
2023-01-31T09:15:21.865Z,58.15
2023-01-31T09:16:21.393Z,58.02
2023-01-31T09:17:21.408Z,59.54
2023-01-31T09:18:21.374Z,54.77
2023-01-31T09:19:21.367Z,58.43
2023-01-31T09:20:21.364Z,55.02
2023-01-31T09:21:21.351Z,57.70
2023-01-31T09:22:21.376Z,56.81
2023-01-31T09:23:21.345Z,55.32
2023-01-31T09:24:21.328Z,54.57
2023-01-31T09:25:33.510Z,58.62
2023-01-31T09:26:23.360Z,57.01
2023-01-31T09:27:21.331Z,59.79
2023-01-31T09:28:21.301Z,59.02
2023-01-31T09:29:21.293Z,56.51
2023-01-31T09:30:21.319Z,55.78
2023-01-31T09:31:21.333Z,58.90
2023-01-31T09:32:21.301Z,54.88
2023-01-31T09:33:21.280Z,58.32
2023-01-31T09:34:21.253Z,56.29
2023-01-31T09:35:21.682Z,54.18
2023-01-31T09:36:21.269Z,58.73
2023-01-31T09:37:21.263Z,57.37
2023-01-31T09:38:21.267Z,55.40
2023-01-31T09:39:21.219Z,60.01
2023-01-31T09:40:21.214Z,58.60
2023-01-31T09:41:21.217Z,53.69
2023-01-31T09:42:21.249Z,55.56
2023-01-31T09:43:21.188Z,54.74
2023-01-31T09:44:21.200Z,56.15
2023-01-31T09:45:21.508Z,56.06
2023-01-31T09:46:21.195Z,56.84
2023-01-31T09:47:21.156Z,55.52
2023-01-31T09:48:21.173Z,52.92
2023-01-31T09:49:21.150Z,55.40
2023-01-31T09:50:21.131Z,56.42
2023-01-31T09:51:21.168Z,54.31
2023-01-31T09:52:21.119Z,56.38
2023-01-31T09:53:21.164Z,53.08
2023-01-31T09:54:21.114Z,53.45
2023-01-31T09:55:21.346Z,54.73
2023-01-31T09:56:21.087Z,57.27
2023-01-31T09:57:21.076Z,53.47
2023-01-31T09:58:21.094Z,57.68
2023-01-31T09:59:21.055Z,58.25
2023-01-31T10:00:21.052Z,57.32
2023-01-31T10:01:21.111Z,57.12
2023-01-31T10:02:21.036Z,54.20
2023-01-31T10:03:21.053Z,57.33
2023-01-31T10:04:21.029Z,56.01
2023-01-31T10:05:21.264Z,56.06
2023-01-31T10:06:21.017Z,56.77
2023-01-31T10:07:21.004Z,58.16
2023-01-31T10:08:21.016Z,56.79
2023-01-31T10:09:20.990Z,57.95
2023-01-31T10:10:20.990Z,54.95
2023-01-31T10:11:20.987Z,57.93
2023-01-31T10:12:20.955Z,57.61
2023-01-31T10:13:20.972Z,58.39
2023-01-31T10:14:20.943Z,58.25
2023-01-31T10:15:21.258Z,56.22
2023-01-31T10:16:20.924Z,57.68
2023-01-31T10:17:20.982Z,56.42
2023-01-31T10:18:20.935Z,55.10
2023-01-31T10:19:20.897Z,56.44
2023-01-31T10:20:21.260Z,59.05
2023-01-31T10:21:20.879Z,57.20
2023-01-31T10:22:20.879Z,55.15
2023-01-31T10:23:20.865Z,55.73
2023-01-31T10:24:20.891Z,56.48
2023-01-31T10:25:20.854Z,57.75
2023-01-31T10:26:20.897Z,59.64
2023-01-31T10:27:20.820Z,57.51
2023-01-31T10:28:21.827Z,55.91
2023-01-31T10:29:20.841Z,57.10
2023-01-31T10:30:22.387Z,59.49
2023-01-31T10:31:20.829Z,59.06
2023-01-31T10:32:20.798Z,57.80
2023-01-31T10:33:20.789Z,56.34
2023-01-31T10:34:20.807Z,54.04
2023-01-31T10:35:20.779Z,57.08
2023-01-31T10:36:20.769Z,58.56
2023-01-31T10:37:20.756Z,57.12
2023-01-31T10:38:20.763Z,57.19
2023-01-31T10:39:20.773Z,59.45
2023-01-31T10:40:21.158Z,56.71
2023-01-31T10:41:20.728Z,58.10
2023-01-31T10:42:20.717Z,56.09
2023-01-31T10:43:20.710Z,55.96
2023-01-31T10:44:20.728Z,58.00
2023-01-31T10:45:21.000Z,59.65
2023-01-31T10:46:20.789Z,59.50
2023-01-31T10:47:20.686Z,57.20
2023-01-31T10:48:20.680Z,55.73
2023-01-31T10:49:20.694Z,57.91
2023-01-31T10:50:21.011Z,59.66
2023-01-31T10:51:20.652Z,57.99
2023-01-31T10:52:20.641Z,55.23
2023-01-31T10:53:21.637Z,57.44
2023-01-31T10:54:20.658Z,58.89
2023-01-31T10:55:20.620Z,57.11
2023-01-31T10:56:20.616Z,53.93
2023-01-31T10:57:20.608Z,56.51
2023-01-31T10:58:20.600Z,58.89
2023-01-31T10:59:20.622Z,56.05
2023-01-31T11:00:20.868Z,55.15
2023-01-31T11:01:20.588Z,58.33
2023-01-31T11:02:20.598Z,54.58
2023-01-31T11:03:20.570Z,53.54
2023-01-31T11:04:20.589Z,55.42
2023-01-31T11:05:20.561Z,60.17
2023-01-31T11:06:20.545Z,59.10
2023-01-31T11:07:20.531Z,56.29
2023-01-31T11:08:20.547Z,57.77
2023-01-31T11:09:22.012Z,55.16
2023-01-31T11:10:21.829Z,57.81
2023-01-31T11:11:20.508Z,53.65
2023-01-31T11:12:20.506Z,56.81
2023-01-31T11:13:20.521Z,54.45
2023-01-31T11:14:20.511Z,56.40
2023-01-31T11:15:20.482Z,59.33
2023-01-31T11:16:20.479Z,57.90
2023-01-31T11:17:21.496Z,58.25
2023-01-31T11:18:20.456Z,57.90
2023-01-31T11:19:20.446Z,57.53
2023-01-31T11:20:20.805Z,56.51
2023-01-31T11:21:20.432Z,58.10
2023-01-31T11:22:20.431Z,58.20
2023-01-31T11:23:20.416Z,58.39
2023-01-31T11:24:20.415Z,57.51
2023-01-31T11:25:20.431Z,57.92
2023-01-31T11:26:20.413Z,57.03
2023-01-31T11:27:20.382Z,58.44
2023-01-31T11:28:20.377Z,55.14
2023-01-31T11:29:20.370Z,57.36
2023-01-31T11:30:20.793Z,56.80
2023-01-31T11:31:20.379Z,58.65
2023-01-31T11:32:20.356Z,59.09
2023-01-31T11:33:20.338Z,58.71
2023-01-31T11:34:20.325Z,58.88
2023-01-31T11:35:20.343Z,59.07
2023-01-31T11:36:20.297Z,59.33
2023-01-31T11:37:21.300Z,55.21
2023-01-31T11:38:20.295Z,58.90
2023-01-31T11:39:20.295Z,58.08
2023-01-31T11:40:20.627Z,57.85
2023-01-31T11:41:20.270Z,56.40
2023-01-31T11:42:20.260Z,58.16
2023-01-31T11:43:20.301Z,58.79
2023-01-31T11:44:20.252Z,58.30
2023-01-31T11:45:20.274Z,56.60
2023-01-31T11:46:20.269Z,57.37
2023-01-31T11:47:20.251Z,57.79
2023-01-31T11:48:20.216Z,56.33
2023-01-31T11:49:20.213Z,56.48
2023-01-31T11:50:20.589Z,57.09
2023-01-31T11:51:20.195Z,57.45
2023-01-31T11:52:20.191Z,56.85
2023-01-31T11:53:20.177Z,58.30
2023-01-31T11:54:20.171Z,57.42
2023-01-31T11:55:20.189Z,58.49
2023-01-31T11:56:20.153Z,58.27
2023-01-31T11:57:20.145Z,60.66
2023-01-31T11:58:20.137Z,58.52
2023-01-31T11:59:20.139Z,59.22
2023-01-31T12:00:20.446Z,56.10
2023-01-31T12:01:20.136Z,57.40
2023-01-31T12:02:20.141Z,58.22
2023-01-31T12:03:20.123Z,56.94
2023-01-31T12:04:20.112Z,59.31
2023-01-31T12:05:20.075Z,57.19
2023-01-31T12:06:20.095Z,57.68
2023-01-31T12:07:20.066Z,58.15
2023-01-31T12:08:20.055Z,56.28
2023-01-31T12:09:20.049Z,57.19
2023-01-31T12:10:20.218Z,57.69
2023-01-31T12:11:20.053Z,59.12
2023-01-31T12:12:20.025Z,59.83
2023-01-31T12:13:20.012Z,60.85
2023-01-31T12:14:20.014Z,59.01
2023-01-31T12:15:20.272Z,56.68
2023-01-31T12:16:20.032Z,58.87
2023-01-31T12:17:19.980Z,60.56
2023-01-31T12:18:19.976Z,60.26
2023-01-31T12:19:19.965Z,57.01
2023-01-31T12:20:28.859Z,56.03
2023-01-31T12:21:21.986Z,59.04
2023-01-31T12:22:19.951Z,58.26
2023-01-31T12:23:19.940Z,58.54
2023-01-31T12:24:19.926Z,58.23
2023-01-31T12:25:21.275Z,59.71
2023-01-31T12:26:20.031Z,57.96
2023-01-31T12:27:19.905Z,59.18
2023-01-31T12:28:19.900Z,57.30
2023-01-31T12:29:19.894Z,58.98
2023-01-31T12:30:19.917Z,59.69
2023-01-31T12:31:19.982Z,58.54
2023-01-31T12:32:20.883Z,58.45
2023-01-31T12:33:19.860Z,57.72
2023-01-31T12:34:19.854Z,60.01
2023-01-31T12:35:19.849Z,55.58
2023-01-31T12:36:19.878Z,59.14
2023-01-31T12:37:19.842Z,57.53
2023-01-31T12:38:19.821Z,59.43
2023-01-31T12:39:19.834Z,58.54
2023-01-31T12:40:25.192Z,58.31
2023-01-31T12:41:21.854Z,58.84
2023-01-31T12:42:19.795Z,62.06
2023-01-31T12:43:19.794Z,57.49
2023-01-31T12:44:19.798Z,57.35
2023-01-31T12:45:20.090Z,58.12
2023-01-31T12:46:19.820Z,61.32
2023-01-31T12:47:19.781Z,55.88
2023-01-31T12:48:19.747Z,56.54
2023-01-31T12:49:19.773Z,58.26
2023-01-31T12:50:19.732Z,59.91
2023-01-31T12:51:19.724Z,59.12
2023-01-31T12:52:19.751Z,58.04